sensor_id;sensor_type;location;lat;lon;timestamp;temperature;humidity
25906;DHT22;13713;52.552;13.204;2023-09-07T00:01:05;25.20;63.80
25906;DHT22;13713;52.552;13.204;2023-09-07T00:03:31;25.20;63.80
25906;DHT22;13713;52.552;13.204;2023-09-07T00:05:57;25.20;63.80
25906;DHT22;13713;52.552;13.204;2023-09-07T00:08:22;25.20;63.80
25906;DHT22;13713;52.552;13.204;2023-09-07T00:10:48;25.20;63.80
25906;DHT22;13713;52.552;13.204;2023-09-07T00:13:14;25.20;63.80
25906;DHT22;13713;52.552;13.204;2023-09-07T00:15:39;25.20;63.90
25906;DHT22;13713;52.552;13.204;2023-09-07T00:18:05;25.20;63.90
25906;DHT22;13713;52.552;13.204;2023-09-07T00:20:31;25.20;63.90
25906;DHT22;13713;52.552;13.204;2023-09-07T00:22:59;25.20;64.00
25906;DHT22;13713;52.552;13.204;2023-09-07T00:25:26;25.10;63.90
25906;DHT22;13713;52.552;13.204;2023-09-07T00:27:51;25.10;63.90
25906;DHT22;13713;52.552;13.204;2023-09-07T00:30:17;25.10;63.90
25906;DHT22;13713;52.552;13.204;2023-09-07T00:32:42;25.10;63.90
25906;DHT22;13713;52.552;13.204;2023-09-07T00:35:08;25.10;63.90
25906;DHT22;13713;52.552;13.204;2023-09-07T00:37:34;25.10;64.00
25906;DHT22;13713;52.552;13.204;2023-09-07T00:39:59;25.20;64.10
25906;DHT22;13713;52.552;13.204;2023-09-07T00:42:25;25.10;64.00
25906;DHT22;13713;52.552;13.204;2023-09-07T00:44:50;25.10;64.00
25906;DHT22;13713;52.552;13.204;2023-09-07T00:47:16;25.10;64.00
25906;DHT22;13713;52.552;13.204;2023-09-07T00:49:42;25.10;64.00
25906;DHT22;13713;52.552;13.204;2023-09-07T00:52:08;25.10;64.00
25906;DHT22;13713;52.552;13.204;2023-09-07T00:54:37;25.10;64.10
25906;DHT22;13713;52.552;13.204;2023-09-07T00:57:04;25.10;64.10
25906;DHT22;13713;52.552;13.204;2023-09-07T00:59:31;25.10;64.10
25906;DHT22;13713;52.552;13.204;2023-09-07T01:01:57;25.10;64.10
25906;DHT22;13713;52.552;13.204;2023-09-07T01:04:23;25.10;64.20
25906;DHT22;13713;52.552;13.204;2023-09-07T01:06:54;25.10;64.20
25906;DHT22;13713;52.552;13.204;2023-09-07T01:09:24;25.10;64.20
25906;DHT22;13713;52.552;13.204;2023-09-07T01:11:50;25.00;64.10
25906;DHT22;13713;52.552;13.204;2023-09-07T01:14:16;25.10;64.20
25906;DHT22;13713;52.552;13.204;2023-09-07T01:16:42;25.00;64.10
25906;DHT22;13713;52.552;13.204;2023-09-07T01:19:08;25.00;64.10
25906;DHT22;13713;52.552;13.204;2023-09-07T01:21:35;25.00;64.10
25906;DHT22;13713;52.552;13.204;2023-09-07T01:24:08;25.10;64.30
25906;DHT22;13713;52.552;13.204;2023-09-07T01:26:35;25.00;64.20
25906;DHT22;13713;52.552;13.204;2023-09-07T01:29:07;25.00;64.20
25906;DHT22;13713;52.552;13.204;2023-09-07T01:31:35;25.00;64.30
25906;DHT22;13713;52.552;13.204;2023-09-07T01:34:01;25.00;64.30
25906;DHT22;13713;52.552;13.204;2023-09-07T01:36:27;25.00;64.30
25906;DHT22;13713;52.552;13.204;2023-09-07T01:38:52;25.00;64.30
25906;DHT22;13713;52.552;13.204;2023-09-07T01:41:18;25.00;64.30
25906;DHT22;13713;52.552;13.204;2023-09-07T01:43:43;25.00;64.30
25906;DHT22;13713;52.552;13.204;2023-09-07T01:46:09;25.00;64.30
25906;DHT22;13713;52.552;13.204;2023-09-07T01:48:35;25.00;64.30
25906;DHT22;13713;52.552;13.204;2023-09-07T01:51:02;25.00;64.30
25906;DHT22;13713;52.552;13.204;2023-09-07T01:53:28;25.00;64.30
25906;DHT22;13713;52.552;13.204;2023-09-07T01:55:54;25.00;64.30
25906;DHT22;13713;52.552;13.204;2023-09-07T01:58:20;25.00;64.40
25906;DHT22;13713;52.552;13.204;2023-09-07T02:00:45;25.00;64.40
25906;DHT22;13713;52.552;13.204;2023-09-07T02:03:11;25.00;64.50
25906;DHT22;13713;52.552;13.204;2023-09-07T02:05:36;25.00;64.40
25906;DHT22;13713;52.552;13.204;2023-09-07T02:08:02;25.00;64.50
25906;DHT22;13713;52.552;13.204;2023-09-07T02:10:29;25.00;64.40
25906;DHT22;13713;52.552;13.204;2023-09-07T02:12:56;25.00;64.40
25906;DHT22;13713;52.552;13.204;2023-09-07T02:15:23;25.00;64.50
25906;DHT22;13713;52.552;13.204;2023-09-07T02:17:49;25.00;64.50
25906;DHT22;13713;52.552;13.204;2023-09-07T02:20:19;24.90;64.40
25906;DHT22;13713;52.552;13.204;2023-09-07T02:22:45;25.00;64.50
25906;DHT22;13713;52.552;13.204;2023-09-07T02:25:11;24.90;64.50
25906;DHT22;13713;52.552;13.204;2023-09-07T02:27:37;24.90;64.50
25906;DHT22;13713;52.552;13.204;2023-09-07T02:30:05;24.90;64.50
25906;DHT22;13713;52.552;13.204;2023-09-07T02:32:33;25.00;64.50
25906;DHT22;13713;52.552;13.204;2023-09-07T02:34:59;24.90;64.50
25906;DHT22;13713;52.552;13.204;2023-09-07T02:37:24;24.90;64.50
25906;DHT22;13713;52.552;13.204;2023-09-07T02:39:50;24.90;64.50
25906;DHT22;13713;52.552;13.204;2023-09-07T02:42:15;24.90;64.50
25906;DHT22;13713;52.552;13.204;2023-09-07T02:44:41;24.90;64.50
25906;DHT22;13713;52.552;13.204;2023-09-07T02:47:07;24.90;64.50
25906;DHT22;13713;52.552;13.204;2023-09-07T02:49:33;24.90;64.60
25906;DHT22;13713;52.552;13.204;2023-09-07T02:51:59;24.90;64.60
25906;DHT22;13713;52.552;13.204;2023-09-07T02:54:25;24.90;64.60
25906;DHT22;13713;52.552;13.204;2023-09-07T02:56:50;24.90;64.60
25906;DHT22;13713;52.552;13.204;2023-09-07T02:59:16;24.90;64.60
25906;DHT22;13713;52.552;13.204;2023-09-07T03:01:42;24.90;64.60
25906;DHT22;13713;52.552;13.204;2023-09-07T03:04:07;24.90;64.70
25906;DHT22;13713;52.552;13.204;2023-09-07T03:06:34;24.90;64.70
25906;DHT22;13713;52.552;13.204;2023-09-07T03:08:59;24.90;64.70
25906;DHT22;13713;52.552;13.204;2023-09-07T03:11:25;24.90;64.60
25906;DHT22;13713;52.552;13.204;2023-09-07T03:13:50;24.80;64.60
25906;DHT22;13713;52.552;13.204;2023-09-07T03:16:17;24.80;64.60
25906;DHT22;13713;52.552;13.204;2023-09-07T03:18:43;24.80;64.60
25906;DHT22;13713;52.552;13.204;2023-09-07T03:21:08;24.80;64.60
25906;DHT22;13713;52.552;13.204;2023-09-07T03:23:34;24.90;64.70
25906;DHT22;13713;52.552;13.204;2023-09-07T03:26:01;24.90;64.70
25906;DHT22;13713;52.552;13.204;2023-09-07T03:28:27;24.80;64.60
25906;DHT22;13713;52.552;13.204;2023-09-07T03:30:53;24.80;64.60
25906;DHT22;13713;52.552;13.204;2023-09-07T03:33:20;24.80;64.60
25906;DHT22;13713;52.552;13.204;2023-09-07T03:35:46;24.80;64.60
25906;DHT22;13713;52.552;13.204;2023-09-07T03:38:12;24.80;64.70
25906;DHT22;13713;52.552;13.204;2023-09-07T03:40:39;24.80;64.70
25906;DHT22;13713;52.552;13.204;2023-09-07T03:43:04;24.80;64.70
25906;DHT22;13713;52.552;13.204;2023-09-07T03:45:30;24.80;64.80
25906;DHT22;13713;52.552;13.204;2023-09-07T03:47:56;24.80;64.80
25906;DHT22;13713;52.552;13.204;2023-09-07T03:50:22;24.80;64.80
25906;DHT22;13713;52.552;13.204;2023-09-07T03:52:48;24.80;64.80
25906;DHT22;13713;52.552;13.204;2023-09-07T03:55:14;24.80;64.80
25906;DHT22;13713;52.552;13.204;2023-09-07T03:57:39;24.70;64.70
25906;DHT22;13713;52.552;13.204;2023-09-07T04:00:06;24.70;64.70
25906;DHT22;13713;52.552;13.204;2023-09-07T04:02:38;24.70;64.70
25906;DHT22;13713;52.552;13.204;2023-09-07T04:05:04;24.70;64.50
25906;DHT22;13713;52.552;13.204;2023-09-07T04:07:30;24.70;64.20
25906;DHT22;13713;52.552;13.204;2023-09-07T04:09:56;24.70;64.20
25906;DHT22;13713;52.552;13.204;2023-09-07T04:12:22;24.70;64.10
25906;DHT22;13713;52.552;13.204;2023-09-07T04:14:47;24.70;64.00
25906;DHT22;13713;52.552;13.204;2023-09-07T04:17:13;24.70;63.90
25906;DHT22;13713;52.552;13.204;2023-09-07T04:19:39;24.70;63.70
25906;DHT22;13713;52.552;13.204;2023-09-07T04:22:05;24.60;63.10
25906;DHT22;13713;52.552;13.204;2023-09-07T04:24:30;24.60;62.50
25906;DHT22;13713;52.552;13.204;2023-09-07T04:26:59;24.50;62.30
25906;DHT22;13713;52.552;13.204;2023-09-07T04:29:27;24.50;62.10
25906;DHT22;13713;52.552;13.204;2023-09-07T04:31:52;24.40;61.80
25906;DHT22;13713;52.552;13.204;2023-09-07T04:34:18;24.30;61.90
25906;DHT22;13713;52.552;13.204;2023-09-07T04:36:44;24.30;61.90
25906;DHT22;13713;52.552;13.204;2023-09-07T04:39:10;24.20;61.90
25906;DHT22;13713;52.552;13.204;2023-09-07T04:41:36;24.10;61.90
25906;DHT22;13713;52.552;13.204;2023-09-07T04:44:01;24.10;61.70
25906;DHT22;13713;52.552;13.204;2023-09-07T04:46:27;24.00;61.80
25906;DHT22;13713;52.552;13.204;2023-09-07T04:48:53;24.00;61.80
25906;DHT22;13713;52.552;13.204;2023-09-07T04:51:18;23.90;61.90
25906;DHT22;13713;52.552;13.204;2023-09-07T04:53:46;23.90;61.70
25906;DHT22;13713;52.552;13.204;2023-09-07T04:56:12;23.80;61.80
25906;DHT22;13713;52.552;13.204;2023-09-07T04:58:38;23.80;61.80
25906;DHT22;13713;52.552;13.204;2023-09-07T05:01:08;23.70;61.80
25906;DHT22;13713;52.552;13.204;2023-09-07T05:03:35;23.70;61.90
25906;DHT22;13713;52.552;13.204;2023-09-07T05:06:00;23.60;62.60
25906;DHT22;13713;52.552;13.204;2023-09-07T05:08:28;23.60;61.70
25906;DHT22;13713;52.552;13.204;2023-09-07T05:11:01;23.50;61.60
25906;DHT22;13713;52.552;13.204;2023-09-07T05:13:28;23.50;61.60
25906;DHT22;13713;52.552;13.204;2023-09-07T05:15:55;23.50;61.60
25906;DHT22;13713;52.552;13.204;2023-09-07T05:18:21;23.40;61.50
25906;DHT22;13713;52.552;13.204;2023-09-07T05:20:46;23.40;61.60
25906;DHT22;13713;52.552;13.204;2023-09-07T05:23:20;23.30;61.50
25906;DHT22;13713;52.552;13.204;2023-09-07T05:25:51;23.30;61.60
25906;DHT22;13713;52.552;13.204;2023-09-07T05:28:19;23.30;61.70
25906;DHT22;13713;52.552;13.204;2023-09-07T05:30:45;23.20;61.70
25906;DHT22;13713;52.552;13.204;2023-09-07T05:33:11;23.20;61.70
25906;DHT22;13713;52.552;13.204;2023-09-07T05:35:37;23.20;61.70
25906;DHT22;13713;52.552;13.204;2023-09-07T05:38:03;23.20;61.80
25906;DHT22;13713;52.552;13.204;2023-09-07T05:40:29;23.10;61.70
25906;DHT22;13713;52.552;13.204;2023-09-07T05:42:55;23.10;61.70
25906;DHT22;13713;52.552;13.204;2023-09-07T05:45:20;23.10;61.80
25906;DHT22;13713;52.552;13.204;2023-09-07T05:47:46;23.10;61.80
25906;DHT22;13713;52.552;13.204;2023-09-07T05:50:12;23.10;61.90
25906;DHT22;13713;52.552;13.204;2023-09-07T05:52:38;23.10;61.90
25906;DHT22;13713;52.552;13.204;2023-09-07T05:55:04;23.10;61.90
25906;DHT22;13713;52.552;13.204;2023-09-07T05:57:30;23.10;62.00
25906;DHT22;13713;52.552;13.204;2023-09-07T05:59:56;23.10;61.90
25906;DHT22;13713;52.552;13.204;2023-09-07T06:02:21;23.10;61.90
25906;DHT22;13713;52.552;13.204;2023-09-07T06:04:47;23.10;61.90
25906;DHT22;13713;52.552;13.204;2023-09-07T06:07:13;23.10;62.10
25906;DHT22;13713;52.552;13.204;2023-09-07T06:09:38;23.10;62.10
25906;DHT22;13713;52.552;13.204;2023-09-07T06:12:04;23.10;62.10
25906;DHT22;13713;52.552;13.204;2023-09-07T06:14:30;23.10;62.20
25906;DHT22;13713;52.552;13.204;2023-09-07T06:16:56;23.10;62.20
25906;DHT22;13713;52.552;13.204;2023-09-07T06:19:22;23.10;62.20
25906;DHT22;13713;52.552;13.204;2023-09-07T06:21:47;23.10;62.30
25906;DHT22;13713;52.552;13.204;2023-09-07T06:24:13;23.10;62.40
25906;DHT22;13713;52.552;13.204;2023-09-07T06:26:40;23.10;62.40
25906;DHT22;13713;52.552;13.204;2023-09-07T06:29:08;23.10;62.50
25906;DHT22;13713;52.552;13.204;2023-09-07T06:31:34;23.10;62.60
25906;DHT22;13713;52.552;13.204;2023-09-07T06:33:59;23.10;62.60
25906;DHT22;13713;52.552;13.204;2023-09-07T06:36:27;23.10;62.70
25906;DHT22;13713;52.552;13.204;2023-09-07T06:38:52;23.10;62.80
25906;DHT22;13713;52.552;13.204;2023-09-07T06:41:18;23.10;62.80
25906;DHT22;13713;52.552;13.204;2023-09-07T06:43:43;23.10;62.80
25906;DHT22;13713;52.552;13.204;2023-09-07T06:46:09;23.10;62.90
25906;DHT22;13713;52.552;13.204;2023-09-07T06:48:35;23.20;62.90
25906;DHT22;13713;52.552;13.204;2023-09-07T06:51:01;23.20;63.00
25906;DHT22;13713;52.552;13.204;2023-09-07T06:53:30;23.20;63.00
25906;DHT22;13713;52.552;13.204;2023-09-07T06:55:59;23.20;63.10
25906;DHT22;13713;52.552;13.204;2023-09-07T06:58:25;23.30;63.20
25906;DHT22;13713;52.552;13.204;2023-09-07T07:00:50;23.30;63.20
25906;DHT22;13713;52.552;13.204;2023-09-07T07:03:16;23.30;63.30
25906;DHT22;13713;52.552;13.204;2023-09-07T07:05:42;23.30;63.30
25906;DHT22;13713;52.552;13.204;2023-09-07T07:08:09;23.30;63.30
25906;DHT22;13713;52.552;13.204;2023-09-07T07:10:34;23.30;63.30
25906;DHT22;13713;52.552;13.204;2023-09-07T07:13:00;23.30;63.40
25906;DHT22;13713;52.552;13.204;2023-09-07T07:15:26;23.30;63.40
25906;DHT22;13713;52.552;13.204;2023-09-07T07:17:51;23.40;63.40
25906;DHT22;13713;52.552;13.204;2023-09-07T07:20:17;23.40;63.50
25906;DHT22;13713;52.552;13.204;2023-09-07T07:22:43;23.40;63.50
25906;DHT22;13713;52.552;13.204;2023-09-07T07:25:12;23.50;63.50
25906;DHT22;13713;52.552;13.204;2023-09-07T07:27:39;23.50;63.50
25906;DHT22;13713;52.552;13.204;2023-09-07T07:30:05;23.50;63.40
25906;DHT22;13713;52.552;13.204;2023-09-07T07:32:31;23.50;63.40
25906;DHT22;13713;52.552;13.204;2023-09-07T07:34:56;23.60;63.50
25906;DHT22;13713;52.552;13.204;2023-09-07T07:37:23;23.60;63.50
25906;DHT22;13713;52.552;13.204;2023-09-07T07:39:49;23.60;63.50
25906;DHT22;13713;52.552;13.204;2023-09-07T07:42:16;23.60;63.50
25906;DHT22;13713;52.552;13.204;2023-09-07T07:44:44;23.70;63.70
25906;DHT22;13713;52.552;13.204;2023-09-07T07:47:10;23.70;63.70
25906;DHT22;13713;52.552;13.204;2023-09-07T07:49:36;23.70;63.80
25906;DHT22;13713;52.552;13.204;2023-09-07T07:52:02;23.80;63.90
25906;DHT22;13713;52.552;13.204;2023-09-07T07:54:28;23.80;64.00
25906;DHT22;13713;52.552;13.204;2023-09-07T07:56:55;23.90;64.20
25906;DHT22;13713;52.552;13.204;2023-09-07T07:59:22;23.90;64.20
25906;DHT22;13713;52.552;13.204;2023-09-07T08:01:47;23.90;64.20
25906;DHT22;13713;52.552;13.204;2023-09-07T08:04:13;23.90;64.00
25906;DHT22;13713;52.552;13.204;2023-09-07T08:06:39;23.90;63.80
25906;DHT22;13713;52.552;13.204;2023-09-07T08:09:05;24.00;63.90
25906;DHT22;13713;52.552;13.204;2023-09-07T08:11:31;24.00;64.10
25906;DHT22;13713;52.552;13.204;2023-09-07T08:13:57;24.00;63.90
25906;DHT22;13713;52.552;13.204;2023-09-07T08:16:23;24.00;63.80
25906;DHT22;13713;52.552;13.204;2023-09-07T08:18:49;24.00;63.40
25906;DHT22;13713;52.552;13.204;2023-09-07T08:21:16;24.10;63.20
25906;DHT22;13713;52.552;13.204;2023-09-07T08:23:42;24.10;63.10
25906;DHT22;13713;52.552;13.204;2023-09-07T08:26:07;24.10;62.80
25906;DHT22;13713;52.552;13.204;2023-09-07T08:28:37;24.10;62.60
25906;DHT22;13713;52.552;13.204;2023-09-07T08:31:02;24.10;62.30
25906;DHT22;13713;52.552;13.204;2023-09-07T08:33:30;24.10;62.30
25906;DHT22;13713;52.552;13.204;2023-09-07T08:36:00;24.20;62.50
25906;DHT22;13713;52.552;13.204;2023-09-07T08:38:26;24.20;62.40
25906;DHT22;13713;52.552;13.204;2023-09-07T08:40:54;24.20;62.30
25906;DHT22;13713;52.552;13.204;2023-09-07T08:43:20;24.30;62.40
25906;DHT22;13713;52.552;13.204;2023-09-07T08:45:49;24.30;62.00
25906;DHT22;13713;52.552;13.204;2023-09-07T08:48:15;24.30;62.10
25906;DHT22;13713;52.552;13.204;2023-09-07T08:50:43;24.30;62.10
25906;DHT22;13713;52.552;13.204;2023-09-07T08:53:16;24.30;62.10
25906;DHT22;13713;52.552;13.204;2023-09-07T08:55:43;24.40;62.30
25906;DHT22;13713;52.552;13.204;2023-09-07T08:58:08;24.40;62.40
25906;DHT22;13713;52.552;13.204;2023-09-07T09:00:35;24.50;62.50
25906;DHT22;13713;52.552;13.204;2023-09-07T09:03:01;24.50;62.50
25906;DHT22;13713;52.552;13.204;2023-09-07T09:05:27;24.50;62.40
25906;DHT22;13713;52.552;13.204;2023-09-07T09:08:03;24.60;62.40
25906;DHT22;13713;52.552;13.204;2023-09-07T09:10:31;24.60;62.30
25906;DHT22;13713;52.552;13.204;2023-09-07T09:12:57;24.60;62.20
25906;DHT22;13713;52.552;13.204;2023-09-07T09:15:25;24.60;62.20
25906;DHT22;13713;52.552;13.204;2023-09-07T09:17:52;24.70;62.30
25906;DHT22;13713;52.552;13.204;2023-09-07T09:20:24;24.70;62.30
25906;DHT22;13713;52.552;13.204;2023-09-07T09:22:52;24.70;62.20
25906;DHT22;13713;52.552;13.204;2023-09-07T09:25:18;24.70;62.00
25906;DHT22;13713;52.552;13.204;2023-09-07T09:27:43;24.80;61.90
25906;DHT22;13713;52.552;13.204;2023-09-07T09:30:10;24.80;61.90
25906;DHT22;13713;52.552;13.204;2023-09-07T09:32:35;24.80;61.80
25906;DHT22;13713;52.552;13.204;2023-09-07T09:35:01;24.80;61.80
25906;DHT22;13713;52.552;13.204;2023-09-07T09:37:28;24.80;61.70
25906;DHT22;13713;52.552;13.204;2023-09-07T09:39:54;24.90;61.50
25906;DHT22;13713;52.552;13.204;2023-09-07T09:42:21;24.90;61.50
25906;DHT22;13713;52.552;13.204;2023-09-07T09:44:47;24.90;61.20
25906;DHT22;13713;52.552;13.204;2023-09-07T09:47:14;24.90;61.20
25906;DHT22;13713;52.552;13.204;2023-09-07T09:49:40;25.00;61.20
25906;DHT22;13713;52.552;13.204;2023-09-07T09:52:06;25.00;60.90
25906;DHT22;13713;52.552;13.204;2023-09-07T09:54:33;25.00;60.80
25906;DHT22;13713;52.552;13.204;2023-09-07T09:57:00;25.00;60.50
25906;DHT22;13713;52.552;13.204;2023-09-07T09:59:25;25.00;60.30
25906;DHT22;13713;52.552;13.204;2023-09-07T10:01:51;25.00;60.20
25906;DHT22;13713;52.552;13.204;2023-09-07T10:04:18;25.10;60.10
25906;DHT22;13713;52.552;13.204;2023-09-07T10:06:56;25.10;60.00
25906;DHT22;13713;52.552;13.204;2023-09-07T10:09:22;25.10;59.90
25906;DHT22;13713;52.552;13.204;2023-09-07T10:11:51;25.10;59.70
25906;DHT22;13713;52.552;13.204;2023-09-07T10:14:17;25.20;59.70
25906;DHT22;13713;52.552;13.204;2023-09-07T10:19:15;25.20;59.40
25906;DHT22;13713;52.552;13.204;2023-09-07T10:21:41;25.20;59.10
25906;DHT22;13713;52.552;13.204;2023-09-07T10:24:07;25.20;59.00
25906;DHT22;13713;52.552;13.204;2023-09-07T10:26:33;25.20;58.90
25906;DHT22;13713;52.552;13.204;2023-09-07T10:29:00;25.30;58.90
25906;DHT22;13713;52.552;13.204;2023-09-07T10:31:31;25.30;58.90
25906;DHT22;13713;52.552;13.204;2023-09-07T10:33:56;25.30;58.60
25906;DHT22;13713;52.552;13.204;2023-09-07T10:36:32;25.30;58.40
25906;DHT22;13713;52.552;13.204;2023-09-07T10:38:59;25.40;58.40
25906;DHT22;13713;52.552;13.204;2023-09-07T10:41:25;25.30;58.30
25906;DHT22;13713;52.552;13.204;2023-09-07T10:43:51;25.40;58.20
25906;DHT22;13713;52.552;13.204;2023-09-07T10:46:20;25.40;58.30
25906;DHT22;13713;52.552;13.204;2023-09-07T10:48:49;25.40;58.20
25906;DHT22;13713;52.552;13.204;2023-09-07T10:51:16;25.40;58.10
25906;DHT22;13713;52.552;13.204;2023-09-07T10:53:42;25.50;58.00
25906;DHT22;13713;52.552;13.204;2023-09-07T10:56:07;25.50;58.00
25906;DHT22;13713;52.552;13.204;2023-09-07T10:58:35;25.50;58.00
25906;DHT22;13713;52.552;13.204;2023-09-07T11:01:01;25.50;57.90
25906;DHT22;13713;52.552;13.204;2023-09-07T11:03:28;25.50;58.00
25906;DHT22;13713;52.552;13.204;2023-09-07T11:08:23;25.60;57.90
25906;DHT22;13713;52.552;13.204;2023-09-07T11:10:49;25.60;57.70
25906;DHT22;13713;52.552;13.204;2023-09-07T11:13:15;25.60;57.60
25906;DHT22;13713;52.552;13.204;2023-09-07T11:15:41;25.60;57.60
25906;DHT22;13713;52.552;13.204;2023-09-07T11:18:08;25.60;57.40
25906;DHT22;13713;52.552;13.204;2023-09-07T11:20:35;25.70;57.40
25906;DHT22;13713;52.552;13.204;2023-09-07T11:23:02;25.60;57.10
25906;DHT22;13713;52.552;13.204;2023-09-07T11:25:35;25.70;57.10
25906;DHT22;13713;52.552;13.204;2023-09-07T11:28:01;25.70;57.10
25906;DHT22;13713;52.552;13.204;2023-09-07T11:30:27;25.70;57.00
25906;DHT22;13713;52.552;13.204;2023-09-07T11:32:59;25.80;57.10
25906;DHT22;13713;52.552;13.204;2023-09-07T11:35:25;25.70;56.90
25906;DHT22;13713;52.552;13.204;2023-09-07T11:37:51;25.80;56.70
25906;DHT22;13713;52.552;13.204;2023-09-07T11:40:17;25.80;56.90
25906;DHT22;13713;52.552;13.204;2023-09-07T11:42:42;25.80;56.70
25906;DHT22;13713;52.552;13.204;2023-09-07T11:45:08;25.80;56.60
25906;DHT22;13713;52.552;13.204;2023-09-07T11:47:34;25.80;56.50
25906;DHT22;13713;52.552;13.204;2023-09-07T11:50:01;25.80;56.40
25906;DHT22;13713;52.552;13.204;2023-09-07T11:52:26;25.80;56.50
25906;DHT22;13713;52.552;13.204;2023-09-07T11:54:52;25.90;56.40
25906;DHT22;13713;52.552;13.204;2023-09-07T11:57:17;25.90;56.10
25906;DHT22;13713;52.552;13.204;2023-09-07T11:59:43;25.90;56.10
25906;DHT22;13713;52.552;13.204;2023-09-07T12:02:09;25.90;56.10
25906;DHT22;13713;52.552;13.204;2023-09-07T12:04:37;25.90;56.00
25906;DHT22;13713;52.552;13.204;2023-09-07T12:07:04;25.90;56.10
25906;DHT22;13713;52.552;13.204;2023-09-07T12:09:29;26.00;56.00
25906;DHT22;13713;52.552;13.204;2023-09-07T12:11:55;26.00;56.00
25906;DHT22;13713;52.552;13.204;2023-09-07T12:14:20;26.00;55.90
25906;DHT22;13713;52.552;13.204;2023-09-07T12:16:46;25.90;55.80
25906;DHT22;13713;52.552;13.204;2023-09-07T12:19:11;26.00;55.70
25906;DHT22;13713;52.552;13.204;2023-09-07T12:21:37;26.10;55.60
25906;DHT22;13713;52.552;13.204;2023-09-07T12:24:03;26.10;55.40
25906;DHT22;13713;52.552;13.204;2023-09-07T12:26:28;26.10;55.50
25906;DHT22;13713;52.552;13.204;2023-09-07T12:28:54;26.10;55.50
25906;DHT22;13713;52.552;13.204;2023-09-07T12:31:19;26.10;55.10
25906;DHT22;13713;52.552;13.204;2023-09-07T12:33:45;26.10;55.00
25906;DHT22;13713;52.552;13.204;2023-09-07T12:36:11;26.10;54.80
25906;DHT22;13713;52.552;13.204;2023-09-07T12:38:37;26.10;55.00
25906;DHT22;13713;52.552;13.204;2023-09-07T12:41:03;26.10;54.90
25906;DHT22;13713;52.552;13.204;2023-09-07T12:43:28;26.20;54.90
25906;DHT22;13713;52.552;13.204;2023-09-07T12:45:54;26.20;54.70
25906;DHT22;13713;52.552;13.204;2023-09-07T12:48:20;26.20;54.80
25906;DHT22;13713;52.552;13.204;2023-09-07T12:50:45;26.20;54.60
25906;DHT22;13713;52.552;13.204;2023-09-07T12:53:11;26.20;54.40
25906;DHT22;13713;52.552;13.204;2023-09-07T12:55:37;26.20;54.60
25906;DHT22;13713;52.552;13.204;2023-09-07T12:58:02;26.30;54.40
25906;DHT22;13713;52.552;13.204;2023-09-07T13:00:28;26.20;54.60
25906;DHT22;13713;52.552;13.204;2023-09-07T13:02:56;26.30;54.60
25906;DHT22;13713;52.552;13.204;2023-09-07T13:05:22;26.30;54.40
25906;DHT22;13713;52.552;13.204;2023-09-07T13:07:47;26.30;54.50
25906;DHT22;13713;52.552;13.204;2023-09-07T13:10:13;26.30;54.50
25906;DHT22;13713;52.552;13.204;2023-09-07T13:12:39;26.30;54.50
25906;DHT22;13713;52.552;13.204;2023-09-07T13:15:04;26.30;54.40
25906;DHT22;13713;52.552;13.204;2023-09-07T13:17:30;26.30;54.50
25906;DHT22;13713;52.552;13.204;2023-09-07T13:19:56;26.30;54.40
25906;DHT22;13713;52.552;13.204;2023-09-07T13:22:21;26.30;54.40
25906;DHT22;13713;52.552;13.204;2023-09-07T13:24:47;26.30;54.40
25906;DHT22;13713;52.552;13.204;2023-09-07T13:27:12;26.30;54.40
25906;DHT22;13713;52.552;13.204;2023-09-07T13:29:38;26.30;54.40
25906;DHT22;13713;52.552;13.204;2023-09-07T13:32:04;26.30;54.20
25906;DHT22;13713;52.552;13.204;2023-09-07T13:34:30;26.30;54.20
25906;DHT22;13713;52.552;13.204;2023-09-07T13:36:55;26.30;54.00
25906;DHT22;13713;52.552;13.204;2023-09-07T13:39:28;26.30;54.10
25906;DHT22;13713;52.552;13.204;2023-09-07T13:41:54;26.30;54.10
25906;DHT22;13713;52.552;13.204;2023-09-07T13:44:19;26.30;54.00
25906;DHT22;13713;52.552;13.204;2023-09-07T13:46:45;26.20;53.90
25906;DHT22;13713;52.552;13.204;2023-09-07T13:49:10;26.30;54.00
25906;DHT22;13713;52.552;13.204;2023-09-07T13:51:36;26.30;53.90
25906;DHT22;13713;52.552;13.204;2023-09-07T13:54:08;26.20;53.80
25906;DHT22;13713;52.552;13.204;2023-09-07T13:56:34;26.20;53.80
25906;DHT22;13713;52.552;13.204;2023-09-07T13:58:59;26.20;53.70
25906;DHT22;13713;52.552;13.204;2023-09-07T14:01:25;26.20;53.70
25906;DHT22;13713;52.552;13.204;2023-09-07T14:03:51;26.30;53.90
25906;DHT22;13713;52.552;13.204;2023-09-07T14:06:17;26.20;53.80
25906;DHT22;13713;52.552;13.204;2023-09-07T14:08:43;26.30;53.80
25906;DHT22;13713;52.552;13.204;2023-09-07T14:11:09;26.20;53.80
25906;DHT22;13713;52.552;13.204;2023-09-07T14:13:35;26.20;53.90
25906;DHT22;13713;52.552;13.204;2023-09-07T14:16:00;26.20;53.90
25906;DHT22;13713;52.552;13.204;2023-09-07T14:18:26;26.30;54.00
25906;DHT22;13713;52.552;13.204;2023-09-07T14:20:52;26.20;53.90
25906;DHT22;13713;52.552;13.204;2023-09-07T14:23:18;26.20;54.00
25906;DHT22;13713;52.552;13.204;2023-09-07T14:25:46;26.30;54.70
25906;DHT22;13713;52.552;13.204;2023-09-07T14:28:13;26.30;54.10
25906;DHT22;13713;52.552;13.204;2023-09-07T14:30:39;26.20;54.10
25906;DHT22;13713;52.552;13.204;2023-09-07T14:33:04;26.30;54.20
25906;DHT22;13713;52.552;13.204;2023-09-07T14:35:30;26.30;54.20
25906;DHT22;13713;52.552;13.204;2023-09-07T14:37:56;26.20;54.20
25906;DHT22;13713;52.552;13.204;2023-09-07T14:40:21;26.20;54.20
25906;DHT22;13713;52.552;13.204;2023-09-07T14:42:49;26.30;54.30
25906;DHT22;13713;52.552;13.204;2023-09-07T14:45:16;26.30;54.40
25906;DHT22;13713;52.552;13.204;2023-09-07T14:47:41;26.30;54.40
25906;DHT22;13713;52.552;13.204;2023-09-07T14:50:07;26.30;54.50
25906;DHT22;13713;52.552;13.204;2023-09-07T14:52:33;26.20;54.50
25906;DHT22;13713;52.552;13.204;2023-09-07T14:55:03;26.30;54.50
25906;DHT22;13713;52.552;13.204;2023-09-07T14:57:28;26.20;54.50
25906;DHT22;13713;52.552;13.204;2023-09-07T14:59:54;26.20;54.60
25906;DHT22;13713;52.552;13.204;2023-09-07T15:02:20;26.20;54.60
25906;DHT22;13713;52.552;13.204;2023-09-07T15:04:45;26.20;54.70
25906;DHT22;13713;52.552;13.204;2023-09-07T15:07:11;26.20;54.70
25906;DHT22;13713;52.552;13.204;2023-09-07T15:09:36;26.20;54.70
25906;DHT22;13713;52.552;13.204;2023-09-07T15:12:02;26.20;54.80
25906;DHT22;13713;52.552;13.204;2023-09-07T15:14:27;26.20;54.80